Time;durP1;ratioP1;P1;durP2;ratioP2;P2;SDS_P1;SDS_P2;PMS_P1;PMS_P2;Temp;Humidity;BMP_temperature;BMP_pressure;BME280_temperature;BME280_humidity;BME280_pressure;Samples;Min_cycle;Max_cycle;Signal;HPM_P1;HPM_P2
2023/01/13 00:01:15;;;;;;;;;;;;;;;16.28;48.10;101328.03;5088786;28;899;-45
2023/01/13 00:03:40;;;;;;;;;;;;;;;17.96;46.17;101332.31;5092260;28;1905;-47
2023/01/13 00:06:06;;;;;;;;;;;;;;;16.98;47.88;101336.41;5086433;28;1121;-45
2023/01/13 00:08:32;;;;;;;;;;;;;;;16.42;47.97;101335.59;5086872;28;1217;-48
2023/01/13 00:10:57;;;;;;;;;;;;;;;16.38;47.65;101342.69;5099114;28;1114;-44
2023/01/13 00:13:25;;;;;;;;;;;;;;;16.80;47.92;101332.91;5086884;28;1162;-45
2023/01/13 00:15:57;;;;;;;;;;;;;;;16.20;48.16;101338.38;5086460;28;1036;-49
2023/01/13 00:18:23;;;;;;;;;;;;;;;16.99;47.63;101332.56;5086123;28;1069;-48
2023/01/13 00:20:56;;;;;;;;;;;;;;;16.44;47.95;101338.09;5099200;28;1037;-49
2023/01/13 00:23:23;;;;;;;;;;;;;;;16.16;47.24;101330.91;5097510;28;1897;-46
2023/01/13 00:25:49;;;;;;;;;;;;;;;17.38;46.84;101330.38;5079551;28;1106;-47
2023/01/13 00:28:14;;;;;;;;;;;;;;;16.40;48.45;101343.25;5079130;28;1098;-49
2023/01/13 00:30:39;;;;;;;;;;;;;;;18.19;46.06;101331.03;5088113;28;1143;-46
2023/01/13 00:33:05;;;;;;;;;;;;;;;17.87;46.72;101325.66;5098836;28;1078;-49
2023/01/13 00:35:30;;;;;;;;;;;;;;;16.90;47.54;101318.47;5099084;28;1061;-47
2023/01/13 00:37:56;;;;;;;;;;;;;;;16.54;47.04;101313.47;5097355;28;1066;-49
2023/01/13 00:40:21;;;;;;;;;;;;;;;16.38;46.45;101309.75;5087226;28;1086;-47
2023/01/13 00:45:44;;;;;;;;;;;;;;;16.32;47.22;101297.06;5057425;28;1388;-46
2023/01/13 00:48:10;;;;;;;;;;;;;;;17.40;47.10;101294.34;5098781;28;1033;-46
2023/01/13 00:50:35;;;;;;;;;;;;;;;16.55;48.31;101298.66;5086960;28;1134;-48
2023/01/13 00:53:01;;;;;;;;;;;;;;;17.75;46.95;101296.47;5098053;28;1149;-46
2023/01/13 00:55:27;;;;;;;;;;;;;;;17.79;46.97;101299.50;5086337;28;1126;-46
2023/01/13 00:57:52;;;;;;;;;;;;;;;16.84;48.06;101303.84;5107769;28;1140;-48
2023/01/13 01:00:18;;;;;;;;;;;;;;;16.50;47.40;101304.09;5079269;28;1062;-46
2023/01/13 01:02:43;;;;;;;;;;;;;;;17.11;48.13;101294.75;5091271;28;1898;-46
2023/01/13 01:05:09;;;;;;;;;;;;;;;16.51;47.82;101300.28;5090812;28;1118;-49
2023/01/13 01:07:34;;;;;;;;;;;;;;;18.06;46.62;101302.09;5098008;28;1093;-49
2023/01/13 01:10:00;;;;;;;;;;;;;;;17.36;47.75;101304.22;5098685;28;1333;-48
2023/01/13 01:12:25;;;;;;;;;;;;;;;16.77;47.62;101301.34;5097616;28;1013;-45
2023/01/13 01:14:51;;;;;;;;;;;;;;;16.59;47.47;101304.44;5098326;28;1137;-49
2023/01/13 01:17:16;;;;;;;;;;;;;;;17.07;48.03;101296.38;5093961;28;1070;-47
2023/01/13 01:19:41;;;;;;;;;;;;;;;16.54;47.87;101307.97;5089739;28;1158;-44
2023/01/13 01:22:07;;;;;;;;;;;;;;;16.31;47.29;101309.13;5098298;28;1970;-45
2023/01/13 01:24:32;;;;;;;;;;;;;;;16.75;47.57;101310.91;5087267;28;1130;-44
2023/01/13 01:26:57;;;;;;;;;;;;;;;16.90;48.22;101312.97;5088340;28;1094;-50
2023/01/13 01:29:23;;;;;;;;;;;;;;;16.36;47.65;101314.66;5089141;28;1043;-47
2023/01/13 01:31:48;;;;;;;;;;;;;;;16.52;48.02;101312.06;5097676;28;1034;-50
2023/01/13 01:34:14;;;;;;;;;;;;;;;16.86;48.05;101314.59;5098102;28;1471;-47
2023/01/13 01:36:39;;;;;;;;;;;;;;;16.37;47.74;101321.81;5080725;28;1125;-49
2023/01/13 01:39:05;;;;;;;;;;;;;;;17.88;46.72;101305.28;5088784;28;1131;-49
2023/01/13 01:41:31;;;;;;;;;;;;;;;16.69;48.11;101306.47;5080705;28;1217;-50
2023/01/13 01:44:02;;;;;;;;;;;;;;;16.32;47.52;101308.03;5088283;28;1968;-50
2023/01/13 01:46:29;;;;;;;;;;;;;;;16.84;47.70;101305.75;5097574;28;1077;-49
2023/01/13 01:48:56;;;;;;;;;;;;;;;16.58;48.08;101300.06;5097810;28;1074;-50
2023/01/13 01:51:21;;;;;;;;;;;;;;;16.23;47.38;101304.13;5092648;28;1045;-50
2023/01/13 01:53:47;;;;;;;;;;;;;;;17.25;47.34;101300.56;5089412;28;1213;-50
2023/01/13 01:56:12;;;;;;;;;;;;;;;16.46;47.79;101302.16;5096401;28;1198;-49
2023/01/13 01:58:40;;;;;;;;;;;;;;;16.13;47.41;101302.09;5097253;28;1026;-50
2023/01/13 02:01:06;;;;;;;;;;;;;;;16.79;47.96;101295.56;5097135;28;1046;-46
2023/01/13 02:03:31;;;;;;;;;;;;;;;16.30;47.66;101290.16;5095728;28;1909;-48
2023/01/13 02:05:56;;;;;;;;;;;;;;;17.96;46.18;101293.81;5095993;28;1062;-46
2023/01/13 02:08:22;;;;;;;;;;;;;;;16.88;47.83;101288.53;5085859;28;1481;-48
2023/01/13 02:10:49;;;;;;;;;;;;;;;16.41;47.79;101295.50;5077463;28;1014;-48
2023/01/13 02:13:14;;;;;;;;;;;;;;;17.24;47.73;101290.69;5087777;28;1051;-48
2023/01/13 02:15:40;;;;;;;;;;;;;;;16.69;47.97;101304.56;5084983;28;1223;-47
2023/01/13 02:18:05;;;;;;;;;;;;;;;16.43;47.75;101304.31;5088716;28;1126;-47
2023/01/13 02:20:40;;;;;;;;;;;;;;;17.29;47.42;101301.72;5084097;28;1094;-46
2023/01/13 02:26:20;;;;;;;;;;;;;;;16.31;47.58;101292.66;5077082;28;1103;-47
2023/01/13 02:32:10;;;;;;;;;;;;;;;16.71;48.31;101307.03;5015263;28;1322;-48
2023/01/13 02:34:39;;;;;;;;;;;;;;;17.07;47.56;101297.19;5014718;28;1206;-46
2023/01/13 02:37:06;;;;;;;;;;;;;;;16.31;48.19;101300.88;5054573;28;1035;-42
2023/01/13 02:39:32;;;;;;;;;;;;;;;16.21;47.20;101298.88;5082155;28;1252;-43
2023/01/13 02:44:51;;;;;;;;;;;;;;;16.47;48.13;101303.81;5074994;28;1579;-46
2023/01/13 02:47:19;;;;;;;;;;;;;;;17.43;47.19;101311.16;5075718;28;1075;-48
2023/01/13 02:49:46;;;;;;;;;;;;;;;18.27;45.81;101307.66;5089202;28;1020;-44
2023/01/13 02:52:13;;;;;;;;;;;;;;;16.83;48.30;101302.19;5092796;28;1031;-46
2023/01/13 02:54:39;;;;;;;;;;;;;;;16.43;47.79;101307.06;5083099;28;1114;-47
2023/01/13 02:57:04;;;;;;;;;;;;;;;17.42;47.46;101301.25;5081914;28;1166;-47
2023/01/13 02:59:30;;;;;;;;;;;;;;;16.56;48.00;101292.09;5098604;28;1007;-46
2023/01/13 03:01:56;;;;;;;;;;;;;;;16.39;48.49;101292.19;5095539;28;1145;-48
2023/01/13 03:04:40;;;;;;;;;;;;;;;16.68;48.38;101291.91;5095926;28;1934;-46
2023/01/13 03:07:11;;;;;;;;;;;;;;;16.31;47.71;101294.56;5095753;28;1038;-47
2023/01/13 03:09:38;;;;;;;;;;;;;;;17.58;46.97;101295.81;5096487;28;1050;-43
2023/01/13 03:12:04;;;;;;;;;;;;;;;16.52;47.85;101290.97;5080893;28;1355;-44
2023/01/13 03:14:33;;;;;;;;;;;;;;;16.25;47.62;101288.22;5085161;28;1166;-46
2023/01/13 03:17:16;;;;;;;;;;;;;;;17.02;47.70;101294.38;5094254;28;885;-49
2023/01/13 03:20:01;;;;;;;;;;;;;;;16.34;47.79;101300.38;5094788;28;1035;-49
2023/01/13 03:22:29;;;;;;;;;;;;;;;16.14;46.89;101295.50;5082013;28;1898;-47
2023/01/13 03:24:59;;;;;;;;;;;;;;;17.72;46.37;101296.97;5081453;28;1158;-51
2023/01/13 03:27:32;;;;;;;;;;;;;;;16.60;47.89;101292.38;5087704;28;1121;-48
2023/01/13 03:30:02;;;;;;;;;;;;;;;16.85;48.07;101304.69;5107957;28;1126;-49
2023/01/13 03:32:28;;;;;;;;;;;;;;;17.02;47.73;101302.63;5086204;28;1193;-48
2023/01/13 03:34:54;;;;;;;;;;;;;;;16.48;47.76;101305.44;5089283;28;1065;-45
2023/01/13 03:37:21;;;;;;;;;;;;;;;16.29;47.29;101300.31;5075782;28;1098;-47
2023/01/13 03:39:47;;;;;;;;;;;;;;;17.01;47.69;101301.00;5079950;28;1058;-48
2023/01/13 03:42:22;;;;;;;;;;;;;;;16.32;47.98;101299.81;5095390;28;2024;-46
2023/01/13 03:44:49;;;;;;;;;;;;;;;17.14;47.48;101301.63;5089361;28;1251;-48
2023/01/13 03:47:23;;;;;;;;;;;;;;;16.50;48.02;101308.78;5076155;28;1042;-44
2023/01/13 03:50:15;;;;;;;;;;;;;;;16.11;47.30;101304.25;5075022;28;1087;-45
2023/01/13 03:52:42;;;;;;;;;;;;;;;16.62;47.98;101306.69;5067564;28;1302;-44
2023/01/13 03:55:11;;;;;;;;;;;;;;;16.02;47.98;101311.25;5085099;28;1203;-46
2023/01/13 03:57:47;;;;;;;;;;;;;;;17.39;46.96;101310.03;5082228;28;1197;-48
2023/01/13 04:00:13;;;;;;;;;;;;;;;16.43;48.10;101307.06;5083972;28;1122;-45
2023/01/13 04:02:39;;;;;;;;;;;;;;;16.23;48.19;101313.16;5080110;28;1905;-47
2023/01/13 04:05:05;;;;;;;;;;;;;;;17.09;47.29;101303.22;5091632;28;1029;-45
2023/01/13 04:07:38;;;;;;;;;;;;;;;16.46;47.61;101313.13;5077539;28;1126;-47
2023/01/13 04:10:05;;;;;;;;;;;;;;;16.08;47.09;101318.50;5087204;28;1027;-47
2023/01/13 04:15:15;;;;;;;;;;;;;;;16.42;48.00;101324.63;5095552;28;1018;-46
2023/01/13 04:17:41;;;;;;;;;;;;;;;16.67;48.13;101319.63;5089288;28;972;-45
2023/01/13 04:20:06;;;;;;;;;;;;;;;16.96;47.67;101314.69;5095820;28;1128;-56
2023/01/13 04:22:32;;;;;;;;;;;;;;;16.37;48.11;101327.31;5081989;28;1975;-54
2023/01/13 04:24:57;;;;;;;;;;;;;;;18.18;45.72;101323.88;5095502;28;1057;-52
2023/01/13 04:27:22;;;;;;;;;;;;;;;16.96;47.79;101322.94;5079383;28;1144;-51
2023/01/13 04:29:48;;;;;;;;;;;;;;;16.42;47.74;101340.25;5084620;28;948;-53
2023/01/13 04:32:13;;;;;;;;;;;;;;;16.24;46.70;101323.06;5095360;28;1090;-53
2023/01/13 04:34:39;;;;;;;;;;;;;;;17.06;47.30;101331.25;5086467;28;1126;-54
2023/01/13 04:37:04;;;;;;;;;;;;;;;16.30;48.05;101331.34;5091187;28;1067;-53
2023/01/13 04:39:30;;;;;;;;;;;;;;;16.15;47.67;101332.00;5095523;28;1073;-54
2023/01/13 04:41:58;;;;;;;;;;;;;;;16.99;47.40;101332.56;5088927;28;1046;-52
2023/01/13 04:44:25;;;;;;;;;;;;;;;16.30;47.98;101332.19;5084259;28;1906;-52
2023/01/13 04:46:50;;;;;;;;;;;;;;;17.91;46.25;101329.56;5097284;28;1042;-53
2023/01/13 04:49:15;;;;;;;;;;;;;;;16.92;47.94;101338.28;5098074;28;1034;-56
2023/01/13 04:51:41;;;;;;;;;;;;;;;16.50;47.60;101336.22;5085113;28;1070;-54
2023/01/13 04:54:07;;;;;;;;;;;;;;;16.57;47.68;101334.91;5092429;28;1110;-55
2023/01/13 04:56:33;;;;;;;;;;;;;;;16.84;47.77;101335.97;5082805;28;1384;-56
2023/01/13 04:58:58;;;;;;;;;;;;;;;16.47;47.25;101339.50;5094498;28;1444;-47
2023/01/13 05:01:24;;;;;;;;;;;;;;;17.76;46.34;101349.56;5098596;28;1012;-52
2023/01/13 05:03:49;;;;;;;;;;;;;;;16.73;47.45;101346.03;5096891;28;1984;-52
2023/01/13 05:06:15;;;;;;;;;;;;;;;16.29;47.21;101352.47;5098381;28;959;-50
2023/01/13 05:08:40;;;;;;;;;;;;;;;17.73;46.31;101358.34;5098652;28;1165;-51
2023/01/13 05:16:58;;;;;;;;;;;;;;;16.62;47.89;101355.28;5096892;28;1123;-51
2023/01/13 05:19:19;;;;;;;;;;;;;;;16.40;47.51;101354.22;5086772;28;1050;-51
2023/01/13 05:27:12;;;;;;;;;;;;;;;16.49;47.89;101351.03;5098189;28;1106;-46
2023/01/13 05:29:37;;;;;;;;;;;;;;;17.38;46.91;101355.09;5098226;28;947;-53
2023/01/13 05:32:05;;;;;;;;;;;;;;;18.52;44.77;101350.91;5098068;28;1078;-53
2023/01/13 05:34:31;;;;;;;;;;;;;;;16.98;47.60;101353.69;5098974;28;1153;-52
2023/01/13 05:36:56;;;;;;;;;;;;;;;16.97;48.29;101351.22;5098007;28;1049;-49
2023/01/13 05:39:21;;;;;;;;;;;;;;;17.32;47.30;101358.06;5094736;28;1331;-49
2023/01/13 05:44:31;;;;;;;;;;;;;;;16.32;46.86;101356.63;5097406;28;1974;-52
2023/01/13 05:46:56;;;;;;;;;;;;;;;16.76;47.62;101362.03;5098333;28;1155;-51
2023/01/13 05:49:22;;;;;;;;;;;;;;;16.74;47.80;101359.50;5098149;28;1152;-50
2023/01/13 05:51:47;;;;;;;;;;;;;;;16.31;47.25;101360.44;5097213;28;1096;-51
2023/01/13 05:54:13;;;;;;;;;;;;;;;17.65;46.36;101354.16;5098066;28;931;-51
2023/01/13 05:56:38;;;;;;;;;;;;;;;16.62;47.89;101369.00;5097806;28;1058;-46
2023/01/13 05:59:03;;;;;;;;;;;;;;;16.83;48.07;101357.13;5096585;28;1082;-51
2023/01/13 06:01:29;;;;;;;;;;;;;;;17.01;47.53;101368.84;5097469;28;1122;-51
2023/01/13 06:03:54;;;;;;;;;;;;;;;16.42;47.72;101373.19;5098013;28;1910;-51
2023/01/13 06:06:20;;;;;;;;;;;;;;;17.03;47.58;101372.97;5097337;28;1107;-51
2023/01/13 06:08:46;;;;;;;;;;;;;;;16.58;48.02;101377.75;5097140;28;1066;-49
2023/01/13 06:11:11;;;;;;;;;;;;;;;16.18;47.40;101383.63;5096515;28;1185;-50
2023/01/13 06:13:36;;;;;;;;;;;;;;;16.35;47.75;101383.53;5096087;28;1166;-54
2023/01/13 06:16:02;;;;;;;;;;;;;;;17.14;46.97;101389.53;5085058;28;1534;-52
2023/01/13 06:18:27;;;;;;;;;;;;;;;16.39;47.57;101388.25;5085835;28;2242;-47
2023/01/13 06:20:53;;;;;;;;;;;;;;;17.24;47.23;101390.47;5092450;28;2212;-52
2023/01/13 06:23:18;;;;;;;;;;;;;;;17.49;46.53;101396.41;5094475;28;1981;-53
2023/01/13 06:25:59;;;;;;;;;;;;;;;16.75;48.06;101398.81;5096164;28;2022;-53
2023/01/13 06:28:24;;;;;;;;;;;;;;;16.28;49.12;101394.72;5094974;28;1906;-52
2023/01/13 06:30:51;;;;;;;;;;;;;;;16.03;49.82;101407.06;5092767;28;1855;-47
2023/01/13 06:33:19;;;;;;;;;;;;;;;15.86;50.26;101398.84;5095587;28;2093;-50
2023/01/13 06:35:46;;;;;;;;;;;;;;;15.83;50.27;101396.63;5087673;28;869;-49
2023/01/13 06:38:12;;;;;;;;;;;;;;;16.97;47.10;101403.41;5086903;28;1289;-53
2023/01/13 06:40:37;;;;;;;;;;;;;;;16.08;49.55;101400.78;5078013;28;1110;-51
2023/01/13 06:43:15;;;;;;;;;;;;;;;16.38;48.72;101411.31;5109385;28;1910;-47
2023/01/13 06:45:43;;;;;;;;;;;;;;;16.73;47.64;101395.47;5096095;28;1262;-51
2023/01/13 06:48:09;;;;;;;;;;;;;;;16.05;49.64;101406.78;5083153;28;1181;-44
2023/01/13 06:50:34;;;;;;;;;;;;;;;15.97;49.84;101410.78;5105429;28;1157;-51
2023/01/13 06:53:00;;;;;;;;;;;;;;;17.25;46.37;101405.03;5089313;28;1107;-46
2023/01/13 06:55:25;;;;;;;;;;;;;;;16.23;48.68;101409.22;5084218;28;1134;-48
2023/01/13 06:57:51;;;;;;;;;;;;;;;15.87;49.65;101416.16;5095238;28;1007;-50
2023/01/13 07:00:17;;;;;;;;;;;;;;;16.50;48.22;101408.41;5095683;28;1053;-49
2023/01/13 07:02:42;;;;;;;;;;;;;;;17.00;46.99;101416.63;5087153;28;2400;-50
2023/01/13 07:05:08;;;;;;;;;;;;;;;16.18;48.95;101416.56;5093325;28;1064;-51
2023/01/13 07:07:33;;;;;;;;;;;;;;;16.86;47.44;101411.53;5088543;28;1074;-57
2023/01/13 07:09:59;;;;;;;;;;;;;;;16.77;47.42;101416.69;5080361;28;1351;-48
2023/01/13 07:12:25;;;;;;;;;;;;;;;16.11;49.18;101418.66;5092275;28;1088;-48
2023/01/13 07:17:34;;;;;;;;;;;;;;;16.71;47.45;101419.63;5092163;28;1281;-44
2023/01/13 07:19:59;;;;;;;;;;;;;;;16.10;48.84;101425.22;5095681;28;1288;-48
2023/01/13 07:22:25;;;;;;;;;;;;;;;16.36;48.48;101418.97;5095352;28;1909;-50
2023/01/13 07:24:50;;;;;;;;;;;;;;;17.05;46.45;101427.66;5090711;28;1289;-49
2023/01/13 07:27:15;;;;;;;;;;;;;;;16.21;48.67;101427.00;5075604;28;1078;-52
2023/01/13 07:29:42;;;;;;;;;;;;;;;16.12;49.00;101423.88;5089094;28;1011;-44
2023/01/13 07:32:08;;;;;;;;;;;;;;;17.14;46.27;101436.25;5088850;28;1942;-47
2023/01/13 07:34:33;;;;;;;;;;;;;;;16.22;48.60;101417.69;5086503;28;1159;-48
2023/01/13 07:36:59;;;;;;;;;;;;;;;17.28;46.09;101424.59;5093017;28;1264;-52
2023/01/13 07:39:24;;;;;;;;;;;;;;;16.83;47.32;101422.22;5085553;28;1209;-52
2023/01/13 07:44:34;;;;;;;;;;;;;;;16.84;47.28;101429.38;5089394;28;1906;-55
2023/01/13 07:46:59;;;;;;;;;;;;;;;17.01;46.55;101432.88;5091918;28;1312;-55
2023/01/13 07:49:24;;;;;;;;;;;;;;;16.31;48.44;101431.78;5089602;28;1206;-49
2023/01/13 07:51:50;;;;;;;;;;;;;;;17.15;46.51;101440.69;5081934;28;2070;-52
2023/01/13 07:54:15;;;;;;;;;;;;;;;18.03;44.86;101437.47;5090788;28;2375;-50
2023/01/13 07:56:41;;;;;;;;;;;;;;;16.80;47.41;101431.78;5084613;28;1809;-52
2023/01/13 07:59:06;;;;;;;;;;;;;;;16.28;47.68;101441.38;5085720;28;1856;-50
2023/01/13 08:01:32;;;;;;;;;;;;;;;17.18;46.79;101445.66;5086621;28;1951;-48
2023/01/13 08:03:57;;;;;;;;;;;;;;;16.51;47.80;101437.53;5086891;28;2209;-51
2023/01/13 08:06:23;;;;;;;;;;;;;;;18.33;44.81;101446.13;5085454;28;1913;-54
2023/01/13 08:08:49;;;;;;;;;;;;;;;17.31;46.79;101447.97;5083796;28;1983;-55
2023/01/13 08:11:14;;;;;;;;;;;;;;;16.54;47.75;101448.00;5088040;28;1130;-50
2023/01/13 08:13:40;;;;;;;;;;;;;;;16.33;47.01;101454.34;5077065;28;1130;-50
2023/01/13 08:16:09;;;;;;;;;;;;;;;16.19;46.61;101445.66;5081936;28;1198;-50
2023/01/13 08:18:34;;;;;;;;;;;;;;;15.99;46.35;101451.69;5091433;28;1221;-47
2023/01/13 08:21:04;;;;;;;;;;;;;;;16.36;47.02;101460.13;5091636;28;1346;-52
2023/01/13 08:23:29;;;;;;;;;;;;;;;18.20;43.55;101462.06;5089056;28;2013;-54
2023/01/13 08:25:58;;;;;;;;;;;;;;;17.65;45.83;101444.09;5088912;28;1364;-55
2023/01/13 08:28:24;;;;;;;;;;;;;;;16.54;47.57;101448.00;5090064;28;1118;-50
2023/01/13 08:30:51;;;;;;;;;;;;;;;16.33;47.11;101452.41;5091973;28;1218;-49
2023/01/13 08:33:17;;;;;;;;;;;;;;;16.16;46.34;101452.47;5088304;28;1177;-48
2023/01/13 08:35:42;;;;;;;;;;;;;;;16.03;46.04;101453.69;5098844;28;1089;-51
2023/01/13 08:38:08;;;;;;;;;;;;;;;17.09;46.38;101450.78;5097718;28;1042;-53
2023/01/13 08:40:33;;;;;;;;;;;;;;;16.20;47.77;101452.78;5093868;28;1171;-50
2023/01/13 08:42:59;;;;;;;;;;;;;;;15.94;47.01;101448.88;5094042;28;1910;-58
2023/01/13 08:45:24;;;;;;;;;;;;;;;15.92;46.32;101446.38;5085338;28;1113;-52
2023/01/13 08:47:50;;;;;;;;;;;;;;;16.49;47.11;101450.69;5097336;28;1034;-52
2023/01/13 08:50:15;;;;;;;;;;;;;;;16.21;47.52;101448.97;5096205;28;1046;-48
2023/01/13 08:52:40;;;;;;;;;;;;;;;17.91;45.64;101453.38;5088100;28;1075;-51
2023/01/13 08:55:06;;;;;;;;;;;;;;;16.63;48.02;101448.38;5086458;28;1061;-51
2023/01/13 08:57:31;;;;;;;;;;;;;;;16.23;47.42;101447.63;5091198;28;1325;-48
2023/01/13 08:59:57;;;;;;;;;;;;;;;17.05;47.45;101453.22;5095564;28;1416;-55
2023/01/13 09:02:22;;;;;;;;;;;;;;;16.47;47.91;101452.88;5092587;28;1345;-45
2023/01/13 09:04:48;;;;;;;;;;;;;;;16.07;47.39;101448.50;5092073;28;1166;-47
2023/01/13 09:07:13;;;;;;;;;;;;;;;16.07;47.50;101454.84;5087718;28;985;-49
2023/01/13 09:09:39;;;;;;;;;;;;;;;17.24;46.86;101439.94;5095057;28;2097;-52
2023/01/13 09:14:48;;;;;;;;;;;;;;;16.01;46.98;101455.03;5095995;28;1084;-51
2023/01/13 09:17:14;;;;;;;;;;;;;;;16.88;46.98;101444.25;5087240;28;1313;-49
2023/01/13 09:19:39;;;;;;;;;;;;;;;16.13;47.82;101447.50;5087286;28;925;-50
2023/01/13 09:22:05;;;;;;;;;;;;;;;17.21;47.00;101440.47;5087079;28;1400;-48
2023/01/13 09:24:30;;;;;;;;;;;;;;;16.59;47.82;101442.56;5096187;28;1979;-51
2023/01/13 09:26:56;;;;;;;;;;;;;;;16.76;47.79;101445.22;5094911;28;1016;-49
2023/01/13 09:29:21;;;;;;;;;;;;;;;17.70;45.99;101425.72;5096020;28;1273;-51
2023/01/13 09:31:47;;;;;;;;;;;;;;;16.60;47.86;101432.41;5097082;28;853;-50
2023/01/13 09:37:00;;;;;;;;;;;;;;;17.27;46.94;101428.41;5096729;28;1003;-51
2023/01/13 09:39:25;;;;;;;;;;;;;;;16.37;48.09;101430.78;5087678;28;2512;-49
2023/01/13 09:44:39;;;;;;;;;;;;;;;16.55;48.08;101426.84;5096472;28;1967;-51
2023/01/13 09:47:06;;;;;;;;;;;;;;;17.35;47.00;101412.53;5097515;28;1042;-49
2023/01/13 09:49:36;;;;;;;;;;;;;;;18.03;45.43;101412.69;5097097;28;935;-50
2023/01/13 09:52:01;;;;;;;;;;;;;;;16.79;47.59;101421.91;5095237;28;1023;-49
2023/01/13 09:54:27;;;;;;;;;;;;;;;16.34;47.52;101412.91;5095462;28;1120;-51
2023/01/13 09:56:52;;;;;;;;;;;;;;;17.32;47.19;101413.91;5097118;28;1081;-48
2023/01/13 09:59:18;;;;;;;;;;;;;;;16.52;48.14;101414.50;5095500;28;1086;-49
2023/01/13 10:01:45;;;;;;;;;;;;;;;17.69;46.64;101418.53;5095317;28;1653;-49
2023/01/13 10:04:11;;;;;;;;;;;;;;;17.83;46.25;101399.66;5095863;28;1910;-49
2023/01/13 10:06:41;;;;;;;;;;;;;;;16.82;47.38;101410.41;5091381;28;1086;-50
2023/01/13 10:09:26;;;;;;;;;;;;;;;16.64;46.85;101408.84;5104480;28;2077;-50
2023/01/13 10:14:37;;;;;;;;;;;;;;;16.99;47.13;101413.06;5084502;28;1500;-49
2023/01/13 10:17:05;;;;;;;;;;;;;;;16.97;47.69;101411.66;5096053;28;1123;-50
2023/01/13 10:19:37;;;;;;;;;;;;;;;18.52;45.19;101405.19;5080800;28;1046;-51
2023/01/13 10:22:21;;;;;;;;;;;;;;;17.49;46.97;101393.66;5094393;28;1534;-49
2023/01/13 10:24:55;;;;;;;;;;;;;;;16.74;47.24;101397.94;5095929;28;1976;-50
2023/01/13 10:27:23;;;;;;;;;;;;;;;16.67;47.07;101391.84;5084274;28;1190;-46
2023/01/13 10:29:49;;;;;;;;;;;;;;;17.36;47.18;101387.53;5087680;28;1197;-44
2023/01/13 10:32:14;;;;;;;;;;;;;;;16.66;47.17;101381.97;5093319;28;1233;-47
2023/01/13 10:34:49;;;;;;;;;;;;;;;16.46;47.03;101376.25;5088345;28;1178;-46
2023/01/13 10:37:19;;;;;;;;;;;;;;;17.71;46.64;101372.38;5084055;28;1087;-50
2023/01/13 10:39:45;;;;;;;;;;;;;;;16.77;47.47;101374.63;5085747;28;2077;-52
2023/01/13 10:42:21;;;;;;;;;;;;;;;16.48;47.16;101366.69;5089503;28;1102;-52
2023/01/13 10:44:53;;;;;;;;;;;;;;;17.28;46.96;101363.28;5079758;28;1930;-51
2023/01/13 10:47:22;;;;;;;;;;;;;;;16.57;47.18;101362.38;5085430;28;1240;-45
2023/01/13 10:50:06;;;;;;;;;;;;;;;16.26;46.99;101369.47;5087255;28;1225;-51
2023/01/13 10:52:32;;;;;;;;;;;;;;;16.74;47.67;101364.19;5091741;28;1175;-49
2023/01/13 10:54:58;;;;;;;;;;;;;;;16.30;47.28;101365.13;5091915;28;1249;-44
2023/01/13 10:57:24;;;;;;;;;;;;;;;16.13;46.80;101364.34;5090677;28;1292;-44
2023/01/13 10:59:52;;;;;;;;;;;;;;;17.14;47.06;101364.81;5086632;28;1183;-46
2023/01/13 11:02:17;;;;;;;;;;;;;;;16.49;47.96;101367.50;5090391;28;1151;-52
2023/01/13 11:04:52;;;;;;;;;;;;;;;16.15;47.38;101367.69;5086533;28;1898;-52
2023/01/13 11:07:34;;;;;;;;;;;;;;;17.35;46.58;101354.78;5086444;28;1491;-47
2023/01/13 11:10:06;;;;;;;;;;;;;;;16.35;47.39;101362.41;5089617;28;1324;-44
2023/01/13 11:12:32;;;;;;;;;;;;;;;17.56;46.48;101353.03;5090681;28;1186;-47
2023/01/13 11:15:01;;;;;;;;;;;;;;;17.07;47.37;101351.31;5082472;28;1126;-50
2023/01/13 11:17:31;;;;;;;;;;;;;;;16.34;47.60;101358.03;5085137;28;1146;-53
2023/01/13 11:20:13;;;;;;;;;;;;;;;16.22;47.01;101362.81;5109695;28;1209;-50
2023/01/13 11:22:48;;;;;;;;;;;;;;;17.09;46.98;101366.44;5092589;28;1980;-52
2023/01/13 11:25:20;;;;;;;;;;;;;;;16.53;47.72;101363.16;5088947;28;1030;-50
2023/01/13 11:27:51;;;;;;;;;;;;;;;16.11;47.47;101364.59;5083745;28;1288;-51
2023/01/13 11:30:19;;;;;;;;;;;;;;;16.22;47.36;101362.81;5084421;28;1288;-51
2023/01/13 11:33:00;;;;;;;;;;;;;;;16.48;47.67;101368.59;5083081;28;1064;-48
2023/01/13 11:35:26;;;;;;;;;;;;;;;16.47;47.90;101366.94;5084831;28;1150;-47
2023/01/13 11:37:53;;;;;;;;;;;;;;;17.73;45.96;101367.41;5085346;28;1876;-51
2023/01/13 11:40:18;;;;;;;;;;;;;;;16.55;47.83;101367.31;5081573;28;1362;-52
2023/01/13 11:43:01;;;;;;;;;;;;;;;16.21;47.48;101366.66;5081720;28;1910;-43
2023/01/13 11:45:26;;;;;;;;;;;;;;;16.03;46.76;101365.06;5087537;28;994;-46
2023/01/13 11:47:52;;;;;;;;;;;;;;;17.23;46.76;101366.81;5088090;28;1122;-46
2023/01/13 11:50:21;;;;;;;;;;;;;;;16.72;47.53;101361.69;5086378;28;1229;-47
2023/01/13 11:53:00;;;;;;;;;;;;;;;16.28;47.30;101364.53;5084001;28;1284;-45
2023/01/13 11:55:32;;;;;;;;;;;;;;;17.65;46.08;101356.91;5084809;28;1214;-48
2023/01/13 11:57:57;;;;;;;;;;;;;;;16.51;47.86;101370.81;5091318;28;1282;-48
2023/01/13 12:00:34;;;;;;;;;;;;;;;17.35;47.03;101372.13;5091523;28;1301;-45
2023/01/13 12:03:15;;;;;;;;;;;;;;;17.14;47.18;101367.56;5093879;28;1901;-47
2023/01/13 12:05:49;;;;;;;;;;;;;;;16.45;47.78;101371.84;5094737;28;1183;-47
2023/01/13 12:08:34;;;;;;;;;;;;;;;17.71;46.74;101377.88;5087260;28;1799;-48
2023/01/13 12:11:05;;;;;;;;;;;;;;;16.61;47.86;101379.16;5092466;28;1201;-47
2023/01/13 12:13:40;;;;;;;;;;;;;;;16.39;47.00;101373.72;5098520;28;1022;-48
2023/01/13 12:16:11;;;;;;;;;;;;;;;17.07;47.35;101365.06;5093035;28;1249;-47
2023/01/13 12:18:39;;;;;;;;;;;;;;;16.31;48.08;101372.25;5087548;28;1252;-43
2023/01/13 12:21:17;;;;;;;;;;;;;;;16.18;47.15;101369.91;5085770;28;1148;-46
2023/01/13 12:23:45;;;;;;;;;;;;;;;17.14;47.34;101368.41;5092381;28;1901;-48
2023/01/13 12:26:11;;;;;;;;;;;;;;;16.30;47.81;101364.25;5089258;28;1147;-47
2023/01/13 12:28:40;;;;;;;;;;;;;;;16.87;47.78;101368.41;5095688;28;1190;-43
2023/01/13 12:31:06;;;;;;;;;;;;;;;16.94;47.47;101363.56;5092745;28;1398;-46
2023/01/13 12:33:49;;;;;;;;;;;;;;;17.99;45.85;101366.72;5097693;28;1092;-48
2023/01/13 12:36:34;;;;;;;;;;;;;;;18.50;45.11;101368.84;5095884;28;1162;-46
2023/01/13 12:39:03;;;;;;;;;;;;;;;17.05;47.33;101376.28;5098088;28;1830;-49
2023/01/13 12:41:35;;;;;;;;;;;;;;;16.70;46.85;101372.09;5090675;28;1143;-46
2023/01/13 12:44:16;;;;;;;;;;;;;;;16.48;46.54;101365.84;5089260;28;1992;-48
2023/01/13 12:46:55;;;;;;;;;;;;;;;16.70;46.98;101371.28;5090355;28;1221;-49
2023/01/13 12:49:27;;;;;;;;;;;;;;;16.65;47.57;101374.81;5090433;28;1223;-48
2023/01/13 12:51:55;;;;;;;;;;;;;;;17.33;47.18;101373.47;5092169;28;1063;-51
2023/01/13 12:54:36;;;;;;;;;;;;;;;17.99;46.00;101366.72;5093028;28;1379;-48
2023/01/13 12:57:13;;;;;;;;;;;;;;;16.76;47.85;101367.50;5086875;28;1245;-47
2023/01/13 12:59:38;;;;;;;;;;;;;;;16.47;47.07;101386.16;5091917;28;1281;-50
2023/01/13 13:02:10;;;;;;;;;;;;;;;16.67;47.36;101378.13;5089571;28;1166;-49
2023/01/13 13:04:45;;;;;;;;;;;;;;;17.16;47.52;101381.88;5089122;28;1901;-49
2023/01/13 13:07:22;;;;;;;;;;;;;;;16.70;47.23;101382.25;5090955;28;1210;-48
2023/01/13 13:09:52;;;;;;;;;;;;;;;16.58;46.51;101376.94;5085052;28;2174;-49
2023/01/13 13:15:19;;;;;;;;;;;;;;;17.14;47.16;101379.41;5091011;28;1238;-50
2023/01/13 13:17:59;;;;;;;;;;;;;;;16.59;47.46;101376.69;5096992;28;1154;-47
2023/01/13 13:20:43;;;;;;;;;;;;;;;16.43;46.80;101380.34;5092374;28;1288;-47
2023/01/13 13:23:32;;;;;;;;;;;;;;;16.65;48.10;101383.06;5096964;28;1917;-45
2023/01/13 13:26:01;;;;;;;;;;;;;;;16.23;47.29;101370.78;5090493;28;1362;-45
2023/01/13 13:28:26;;;;;;;;;;;;;;;16.05;46.60;101373.88;5097473;28;1249;-49
2023/01/13 13:31:00;;;;;;;;;;;;;;;17.60;46.40;101370.66;5095121;28;1206;-46
2023/01/13 13:33:28;;;;;;;;;;;;;;;16.47;47.88;101366.94;5093365;28;1276;-49
2023/01/13 13:36:14;;;;;;;;;;;;;;;16.26;47.80;101374.94;5091304;28;1418;-51
2023/01/13 13:47:01;;;;;;;;;;;;;;;16.74;47.87;101378.72;5077567;28;965;-46
2023/01/13 13:49:34;;;;;;;;;;;;;;;16.39;47.39;101377.28;5088912;28;1134;-44